createdAt,value
2019-05-28T00:00:42.073Z,993.54
2019-05-28T00:01:42.069Z,993.51
2019-05-28T00:02:42.040Z,993.52
2019-05-28T00:03:42.033Z,993.49
2019-05-28T00:04:42.012Z,993.49
2019-05-28T00:05:42.009Z,993.48
2019-05-28T00:06:41.981Z,993.47
2019-05-28T00:07:41.963Z,993.41
2019-05-28T00:08:41.954Z,993.40
2019-05-28T00:09:41.934Z,993.39
2019-05-28T00:10:41.922Z,993.36
2019-05-28T00:11:41.903Z,993.40
2019-05-28T00:12:41.889Z,993.41
2019-05-28T00:13:41.872Z,993.44
2019-05-28T00:14:41.857Z,993.42
2019-05-28T00:15:41.852Z,993.46
2019-05-28T00:16:41.825Z,993.44
2019-05-28T00:17:41.813Z,993.41
2019-05-28T00:18:41.795Z,993.42
2019-05-28T00:19:41.780Z,993.39
2019-05-28T00:20:41.762Z,993.35
2019-05-28T00:21:41.745Z,993.34
2019-05-28T00:22:41.734Z,993.32
2019-05-28T00:23:41.763Z,993.33
2019-05-28T00:24:41.711Z,993.34
2019-05-28T00:25:41.683Z,993.36
2019-05-28T00:26:41.681Z,993.32
2019-05-28T00:27:41.654Z,993.33
2019-05-28T00:28:41.639Z,993.33
2019-05-28T00:29:41.624Z,993.33
2019-05-28T00:30:41.607Z,993.33
2019-05-28T00:31:41.592Z,993.35
2019-05-28T00:32:41.577Z,993.32
2019-05-28T00:33:41.562Z,993.34
2019-05-28T00:34:41.588Z,993.32
2019-05-28T00:35:41.531Z,993.28
2019-05-28T00:36:41.515Z,993.28
2019-05-28T00:37:41.499Z,993.27
2019-05-28T00:38:41.486Z,993.28
2019-05-28T00:39:41.480Z,993.25
2019-05-28T00:40:41.642Z,993.29
2019-05-28T00:41:41.630Z,993.22
2019-05-28T00:42:41.626Z,993.25
2019-05-28T00:43:41.593Z,993.25
2019-05-28T00:44:41.392Z,993.23
2019-05-28T00:45:41.377Z,993.21
2019-05-28T00:46:41.362Z,993.12
2019-05-28T00:47:41.344Z,993.14
2019-05-28T00:48:41.329Z,993.16
2019-05-28T00:49:41.314Z,993.14
2019-05-28T00:50:41.298Z,993.12
2019-05-28T00:51:41.284Z,993.12
2019-05-28T00:52:41.297Z,993.07
2019-05-28T00:53:41.253Z,993.07
2019-05-28T00:54:41.240Z,993.08
2019-05-28T00:55:41.224Z,993.12
2019-05-28T00:56:41.222Z,993.05
2019-05-28T00:57:41.194Z,993.11
2019-05-28T00:58:41.185Z,993.09
2019-05-28T00:59:41.160Z,993.12
2019-05-28T01:00:41.140Z,993.12
2019-05-28T01:01:41.128Z,993.16
2019-05-28T01:02:41.121Z,993.14
2019-05-28T01:03:41.101Z,993.19
2019-05-28T01:04:41.083Z,993.18
2019-05-28T01:05:41.068Z,993.18
2019-05-28T01:06:41.290Z,993.25
2019-05-28T01:07:41.230Z,993.24
2019-05-28T01:08:41.199Z,993.21
2019-05-28T01:09:41.206Z,993.24
2019-05-28T01:10:40.991Z,993.23
2019-05-28T01:11:41.163Z,993.21
2019-05-28T01:12:40.969Z,993.21
2019-05-28T01:13:40.940Z,993.17
2019-05-28T01:14:40.926Z,993.16
2019-05-28T01:15:40.909Z,993.12
2019-05-28T01:16:40.894Z,993.15
2019-05-28T01:17:40.880Z,993.14
2019-05-28T01:18:40.862Z,993.12
2019-05-28T01:19:40.847Z,993.17
2019-05-28T01:20:40.829Z,993.12
2019-05-28T01:21:42.499Z,993.18
2019-05-28T01:22:40.799Z,993.13
2019-05-28T01:23:40.782Z,993.14
2019-05-28T01:24:40.764Z,993.16
2019-05-28T01:25:40.749Z,993.10
2019-05-28T01:26:40.736Z,993.12
2019-05-28T01:27:40.715Z,993.15
2019-05-28T01:28:40.701Z,993.14
2019-05-28T01:29:40.684Z,993.15
2019-05-28T01:30:55.733Z,993.12
2019-05-28T01:31:40.654Z,993.11
2019-05-28T01:32:40.639Z,993.08
2019-05-28T01:33:40.622Z,993.07
2019-05-28T01:34:40.609Z,993.05
2019-05-28T01:35:40.590Z,993.04
2019-05-28T01:36:40.767Z,993.03
2019-05-28T01:37:40.767Z,993.01
2019-05-28T01:38:40.736Z,993.06
2019-05-28T01:39:40.527Z,993.06
2019-05-28T01:40:40.508Z,993.02
2019-05-28T01:41:40.494Z,992.96
2019-05-28T01:42:40.480Z,992.97
2019-05-28T01:43:40.458Z,992.91
2019-05-28T01:44:40.448Z,992.92
2019-05-28T01:45:40.432Z,992.89
2019-05-28T01:46:40.416Z,992.88
2019-05-28T01:47:40.401Z,992.85
2019-05-28T01:48:40.385Z,992.83
2019-05-28T01:49:40.372Z,992.84
2019-05-28T01:50:40.541Z,992.82
2019-05-28T01:51:40.523Z,992.82
2019-05-28T01:52:40.317Z,992.77
2019-05-28T01:53:40.301Z,992.75
2019-05-28T01:54:40.287Z,992.69
2019-05-28T01:55:40.270Z,992.65
2019-05-28T01:56:40.255Z,992.66
2019-05-28T01:57:40.242Z,992.63
2019-05-28T01:58:40.227Z,992.64
2019-05-28T01:59:40.206Z,992.66
2019-05-28T02:00:40.195Z,992.69
2019-05-28T02:01:40.175Z,992.68
2019-05-28T02:02:40.158Z,992.70
2019-05-28T02:03:40.142Z,992.70
2019-05-28T02:04:40.123Z,992.72
2019-05-28T02:05:40.107Z,992.76
2019-05-28T02:06:40.093Z,992.72
2019-05-28T02:07:40.080Z,992.79
2019-05-28T02:08:40.062Z,992.80
2019-05-28T02:09:40.047Z,992.82
2019-05-28T02:10:40.038Z,992.84
2019-05-28T02:11:40.013Z,992.83
2019-05-28T02:12:40.004Z,992.87
2019-05-28T02:13:39.982Z,992.92
2019-05-28T02:14:39.967Z,992.89
2019-05-28T02:15:39.942Z,992.87
2019-05-28T02:16:39.934Z,992.86
2019-05-28T02:17:39.924Z,992.86
2019-05-28T02:18:39.901Z,992.83
2019-05-28T02:19:39.883Z,992.80
2019-05-28T02:20:39.868Z,992.82
2019-05-28T02:21:39.851Z,992.80
2019-05-28T02:22:39.833Z,992.80
2019-05-28T02:23:39.821Z,992.81
2019-05-28T02:24:39.803Z,992.83
2019-05-28T02:25:39.789Z,992.82
2019-05-28T02:26:39.770Z,992.88
2019-05-28T02:27:39.755Z,992.87
2019-05-28T02:28:39.737Z,992.87
2019-05-28T02:29:39.723Z,992.91
2019-05-28T02:30:39.706Z,992.92
2019-05-28T02:31:39.683Z,992.94
2019-05-28T02:32:39.859Z,992.97
2019-05-28T02:33:39.840Z,992.94
2019-05-28T02:34:39.840Z,992.95
2019-05-28T02:35:39.629Z,993.00
2019-05-28T02:36:39.609Z,993.03
2019-05-28T02:37:39.589Z,993.03
2019-05-28T02:38:39.574Z,993.08
2019-05-28T02:39:39.560Z,993.10
2019-05-28T02:40:39.549Z,993.10
2019-05-28T02:41:39.527Z,993.10
2019-05-28T02:42:39.512Z,993.07
2019-05-28T02:43:39.494Z,993.10
2019-05-28T02:44:39.488Z,993.11
2019-05-28T02:45:39.465Z,993.10
2019-05-28T02:46:39.447Z,993.08
2019-05-28T02:47:39.486Z,993.11
2019-05-28T02:48:39.412Z,993.07
2019-05-28T02:49:39.396Z,993.08
2019-05-28T02:50:39.574Z,993.08
2019-05-28T02:51:39.556Z,993.04
2019-05-28T02:52:39.542Z,993.02
2019-05-28T02:53:39.333Z,993.07
2019-05-28T02:54:39.316Z,993.04
2019-05-28T02:55:39.302Z,993.07
2019-05-28T02:56:39.281Z,992.99
2019-05-28T02:57:39.268Z,992.95
2019-05-28T02:58:39.251Z,992.98
2019-05-28T02:59:39.233Z,992.97
2019-05-28T03:00:39.218Z,992.99
2019-05-28T03:01:44.209Z,992.98
2019-05-28T03:02:39.184Z,992.96
2019-05-28T03:03:39.167Z,992.94
2019-05-28T03:04:39.150Z,992.92
2019-05-28T03:05:39.135Z,992.95
2019-05-28T03:06:39.126Z,992.91
2019-05-28T03:07:39.102Z,992.90
2019-05-28T03:08:39.086Z,992.93
2019-05-28T03:09:39.085Z,992.88
2019-05-28T03:11:01.633Z,992.92
2019-05-28T03:11:39.037Z,992.91
2019-05-28T03:12:39.019Z,992.92
2019-05-28T03:13:39.004Z,992.94
2019-05-28T03:14:38.989Z,992.95
2019-05-28T03:15:38.980Z,993.00
2019-05-28T03:16:38.956Z,992.95
2019-05-28T03:17:38.940Z,993.03
2019-05-28T03:18:38.922Z,992.99
2019-05-28T03:19:38.914Z,993.06
2019-05-28T03:20:38.890Z,993.07
2019-05-28T03:21:38.875Z,993.04
2019-05-28T03:22:38.870Z,993.00
2019-05-28T03:23:38.850Z,992.99
2019-05-28T03:24:38.824Z,993.04
2019-05-28T03:25:38.806Z,993.03
2019-05-28T03:26:38.793Z,993.04
2019-05-28T03:27:38.783Z,993.11
2019-05-28T03:28:38.793Z,993.12
2019-05-28T03:29:38.744Z,993.09
2019-05-28T03:30:38.727Z,993.12
2019-05-28T03:31:38.711Z,993.09
2019-05-28T03:32:38.694Z,993.11
2019-05-28T03:33:38.686Z,993.12
2019-05-28T03:34:41.927Z,993.15
2019-05-28T03:35:38.670Z,993.12
2019-05-28T03:36:38.817Z,993.14
2019-05-28T03:37:38.617Z,993.13
2019-05-28T03:38:38.602Z,993.13
2019-05-28T03:39:38.578Z,993.15
2019-05-28T03:40:38.562Z,993.14
2019-05-28T03:41:38.550Z,993.15
2019-05-28T03:42:38.529Z,993.16
2019-05-28T03:43:38.514Z,993.16
2019-05-28T03:44:38.496Z,993.15
2019-05-28T03:45:38.480Z,993.17
2019-05-28T03:46:38.481Z,993.16
2019-05-28T03:47:38.446Z,993.16
2019-05-28T03:48:38.433Z,993.19
2019-05-28T03:49:38.414Z,993.15
2019-05-28T03:50:38.399Z,993.17
2019-05-28T03:51:38.399Z,993.16
2019-05-28T03:52:38.556Z,993.14
2019-05-28T03:53:38.534Z,993.16
2019-05-28T03:54:38.486Z,993.14
2019-05-28T03:55:38.317Z,993.17
2019-05-28T03:56:38.298Z,993.15
2019-05-28T03:57:38.301Z,993.20
2019-05-28T03:58:38.266Z,993.16
2019-05-28T03:59:38.276Z,993.16
2019-05-28T04:00:38.235Z,993.12
2019-05-28T04:01:38.218Z,993.11
2019-05-28T04:02:38.203Z,993.13
2019-05-28T04:03:38.188Z,993.12
2019-05-28T04:04:38.170Z,993.15
2019-05-28T04:05:38.152Z,993.13
2019-05-28T04:06:38.140Z,993.15
2019-05-28T04:07:38.138Z,993.14
2019-05-28T04:08:38.100Z,993.15
2019-05-28T04:09:38.088Z,993.14
2019-05-28T04:10:38.096Z,993.14
2019-05-28T04:11:44.678Z,993.12
2019-05-28T04:12:38.035Z,993.08
2019-05-28T04:13:38.021Z,993.05
2019-05-28T04:14:38.006Z,993.09
2019-05-28T04:15:37.989Z,993.04
2019-05-28T04:16:37.977Z,993.06
2019-05-28T04:17:37.960Z,993.07
2019-05-28T04:18:37.941Z,993.05
2019-05-28T04:19:37.922Z,993.06
2019-05-28T04:20:37.907Z,993.07
2019-05-28T04:21:37.894Z,993.06
2019-05-28T04:22:37.872Z,993.07
2019-05-28T04:23:41.404Z,993.06
2019-05-28T04:24:37.843Z,993.05
2019-05-28T04:25:37.823Z,993.05
2019-05-28T04:26:37.811Z,993.07
2019-05-28T04:27:37.801Z,993.11
2019-05-28T04:28:37.775Z,993.09
2019-05-28T04:29:37.766Z,993.10
2019-05-28T04:30:37.741Z,993.09
2019-05-28T04:31:37.728Z,993.09
2019-05-28T04:32:41.117Z,993.09
2019-05-28T04:33:37.701Z,993.12
2019-05-28T04:34:37.755Z,993.14
2019-05-28T04:35:37.854Z,993.13
2019-05-28T04:36:37.652Z,993.18
2019-05-28T04:37:37.632Z,993.16
2019-05-28T04:38:37.613Z,993.16
2019-05-28T04:39:37.604Z,993.22
2019-05-28T04:40:37.583Z,993.18
2019-05-28T04:41:37.567Z,993.19
2019-05-28T04:42:37.541Z,993.14
2019-05-28T04:43:37.531Z,993.14
2019-05-28T04:44:37.521Z,993.21
2019-05-28T04:45:37.510Z,993.17
2019-05-28T04:46:37.482Z,993.18
2019-05-28T04:47:37.462Z,993.15
2019-05-28T04:48:37.640Z,993.21
2019-05-28T04:49:37.632Z,993.14
2019-05-28T04:50:37.666Z,993.12
2019-05-28T04:51:37.593Z,993.21
2019-05-28T04:52:37.602Z,993.20
2019-05-28T04:53:37.648Z,993.19
2019-05-28T04:54:37.545Z,993.21
2019-05-28T04:55:37.528Z,993.21
2019-05-28T04:56:37.323Z,993.20
2019-05-28T04:57:37.304Z,993.19
2019-05-28T04:58:37.285Z,993.19
2019-05-28T04:59:37.272Z,993.19
2019-05-28T05:00:37.259Z,993.18
2019-05-28T05:01:37.240Z,993.18
2019-05-28T05:02:37.224Z,993.20
2019-05-28T05:03:37.204Z,993.20
2019-05-28T05:04:37.190Z,993.21
2019-05-28T05:05:37.174Z,993.26
2019-05-28T05:06:37.157Z,993.24
2019-05-28T05:07:37.143Z,993.23
2019-05-28T05:08:37.129Z,993.23
2019-05-28T05:09:37.111Z,993.22
2019-05-28T05:10:37.094Z,993.24
2019-05-28T05:11:37.078Z,993.24
2019-05-28T05:12:37.062Z,993.25
2019-05-28T05:13:37.046Z,993.21
2019-05-28T05:14:37.024Z,993.26
2019-05-28T05:15:37.207Z,993.20
2019-05-28T05:16:37.180Z,993.19
2019-05-28T05:17:37.149Z,993.23
2019-05-28T05:18:37.157Z,993.23
2019-05-28T05:19:36.949Z,993.24
2019-05-28T05:20:36.930Z,993.27
2019-05-28T05:21:36.916Z,993.25
2019-05-28T05:22:36.906Z,993.28
2019-05-28T05:23:36.889Z,993.26
2019-05-28T05:24:36.870Z,993.25
2019-05-28T05:25:36.852Z,993.31
2019-05-28T05:26:36.837Z,993.22
2019-05-28T05:27:36.823Z,993.22
2019-05-28T05:28:36.808Z,993.28
2019-05-28T05:29:36.789Z,993.23
2019-05-28T05:30:36.767Z,993.27
2019-05-28T05:31:36.756Z,993.22
2019-05-28T05:32:36.743Z,993.27
2019-05-28T05:33:36.730Z,993.24
2019-05-28T05:34:36.709Z,993.28
2019-05-28T05:35:36.692Z,993.28
2019-05-28T05:36:36.679Z,993.30
2019-05-28T05:37:36.713Z,993.30
2019-05-28T05:38:36.645Z,993.30
2019-05-28T05:39:36.630Z,993.26
2019-05-28T05:40:36.613Z,993.31
2019-05-28T05:41:36.612Z,993.30
2019-05-28T05:42:36.586Z,993.35
2019-05-28T05:43:36.573Z,993.29
2019-05-28T05:44:36.550Z,993.32
2019-05-28T05:45:36.538Z,993.30
2019-05-28T05:46:36.509Z,993.33
2019-05-28T05:47:36.501Z,993.29
2019-05-28T05:48:36.486Z,993.29
2019-05-28T05:49:36.475Z,993.29
2019-05-28T05:50:36.455Z,993.28
2019-05-28T05:51:36.438Z,993.33
2019-05-28T05:52:36.423Z,993.33
2019-05-28T05:53:36.408Z,993.33
2019-05-28T05:54:36.392Z,993.37
2019-05-28T05:55:36.374Z,993.34
2019-05-28T05:56:36.360Z,993.36
2019-05-28T05:57:36.343Z,993.30
2019-05-28T05:58:36.362Z,993.28
2019-05-28T05:59:36.322Z,993.37
2019-05-28T06:00:36.309Z,993.34
2019-05-28T06:01:36.280Z,993.36
2019-05-28T06:02:36.290Z,993.38
2019-05-28T06:03:40.194Z,993.41
2019-05-28T06:04:36.234Z,993.42
2019-05-28T06:05:36.475Z,993.40
2019-05-28T06:06:36.209Z,993.48
2019-05-28T06:07:36.249Z,993.42
2019-05-28T06:08:37.236Z,993.40
2019-05-28T06:09:36.326Z,993.44
2019-05-28T06:10:36.325Z,993.48
2019-05-28T06:11:36.313Z,993.43
2019-05-28T06:12:36.111Z,993.40
2019-05-28T06:13:36.101Z,993.39
2019-05-28T06:14:38.015Z,993.45
2019-05-28T06:15:36.063Z,993.37
2019-05-28T06:16:36.054Z,993.39
2019-05-28T06:17:36.033Z,993.37
2019-05-28T06:18:36.021Z,993.38
2019-05-28T06:19:36.005Z,993.43
2019-05-28T06:20:35.988Z,993.42
2019-05-28T06:21:35.976Z,993.44
2019-05-28T06:22:36.039Z,993.42
2019-05-28T06:23:35.948Z,993.41
2019-05-28T06:24:35.930Z,993.42
2019-05-28T06:25:35.918Z,993.46
2019-05-28T06:26:35.901Z,993.47
2019-05-28T06:27:35.905Z,993.45
2019-05-28T06:28:35.879Z,993.51
2019-05-28T06:29:35.868Z,993.46
2019-05-28T06:30:35.847Z,993.39
2019-05-28T06:31:35.833Z,993.38
2019-05-28T06:32:37.224Z,993.47
2019-05-28T06:33:35.803Z,993.40
2019-05-28T06:34:35.784Z,993.43
2019-05-28T06:35:35.771Z,993.43
2019-05-28T06:36:35.761Z,993.36
2019-05-28T06:37:35.744Z,993.34
2019-05-28T06:38:35.729Z,993.39
2019-05-28T06:39:35.718Z,993.44
2019-05-28T06:40:35.700Z,993.41
2019-05-28T06:41:35.686Z,993.48
2019-05-28T06:42:39.358Z,993.45
2019-05-28T06:43:35.658Z,993.48
2019-05-28T06:44:35.642Z,993.53
2019-05-28T06:45:35.629Z,993.50
2019-05-28T06:46:35.623Z,993.48
2019-05-28T06:47:35.616Z,993.51
2019-05-28T06:48:35.590Z,993.46
2019-05-28T06:49:35.573Z,993.45
2019-05-28T06:50:35.558Z,993.45
2019-05-28T06:51:35.544Z,993.44
2019-05-28T06:52:35.603Z,993.49
2019-05-28T06:53:35.518Z,993.45
2019-05-28T06:54:35.696Z,993.45
2019-05-28T06:55:35.663Z,993.50
2019-05-28T06:56:35.556Z,993.52
2019-05-28T06:57:35.617Z,993.49
2019-05-28T06:58:39.878Z,993.55
2019-05-28T06:59:35.432Z,993.50
2019-05-28T07:00:35.412Z,993.56
2019-05-28T07:01:35.403Z,993.60
2019-05-28T07:02:35.388Z,993.54
2019-05-28T07:03:35.568Z,993.64
2019-05-28T07:04:35.549Z,993.62
2019-05-28T07:05:35.346Z,993.57
2019-05-28T07:06:35.335Z,993.57
2019-05-28T07:07:35.317Z,993.62
2019-05-28T07:08:35.302Z,993.69
2019-05-28T07:09:35.289Z,993.65
2019-05-28T07:10:35.275Z,993.72
2019-05-28T07:11:35.262Z,993.70
2019-05-28T07:12:35.248Z,993.75
2019-05-28T07:13:35.234Z,993.65
2019-05-28T07:14:35.236Z,993.74
2019-05-28T07:15:35.204Z,993.74
2019-05-28T07:16:50.019Z,993.71
2019-05-28T07:17:35.238Z,993.67
2019-05-28T07:18:35.314Z,993.70
2019-05-28T07:19:35.350Z,993.74
2019-05-28T07:20:35.338Z,993.75
2019-05-28T07:21:35.320Z,993.80
2019-05-28T07:22:35.198Z,993.74
2019-05-28T07:23:35.099Z,993.72
2019-05-28T07:24:35.087Z,993.68
2019-05-28T07:25:35.075Z,993.71
2019-05-28T07:26:35.072Z,993.65
2019-05-28T07:27:35.045Z,993.71
2019-05-28T07:28:35.038Z,993.67
2019-05-28T07:29:35.026Z,993.70
2019-05-28T07:30:35.010Z,993.71
2019-05-28T07:31:34.995Z,993.70
2019-05-28T07:32:34.999Z,993.71
2019-05-28T07:33:35.904Z,993.72
2019-05-28T07:34:34.957Z,993.71
2019-05-28T07:35:45.397Z,993.68
2019-05-28T07:36:34.932Z,993.72
2019-05-28T07:37:34.918Z,993.73
2019-05-28T07:38:34.911Z,993.79
2019-05-28T07:39:34.911Z,993.72
2019-05-28T07:40:34.880Z,993.75
2019-05-28T07:41:34.866Z,993.71
2019-05-28T07:42:34.863Z,993.71
2019-05-28T07:43:34.843Z,993.72
2019-05-28T07:44:34.835Z,993.81
2019-05-28T07:45:34.816Z,993.80
2019-05-28T07:46:34.809Z,993.82
2019-05-28T07:47:34.796Z,993.80
2019-05-28T07:48:34.790Z,993.81
2019-05-28T07:49:34.781Z,993.80
2019-05-28T07:50:34.755Z,993.80
2019-05-28T07:51:34.745Z,993.84
2019-05-28T07:52:34.735Z,993.83
2019-05-28T07:53:39.958Z,993.88
2019-05-28T07:54:34.709Z,993.80
2019-05-28T07:55:34.702Z,993.89
2019-05-28T07:56:34.695Z,993.85
2019-05-28T07:57:34.679Z,993.87
2019-05-28T07:58:34.663Z,993.85
2019-05-28T07:59:34.651Z,993.96
2019-05-28T08:00:34.642Z,993.88
2019-05-28T08:01:34.627Z,993.93
2019-05-28T08:02:34.614Z,993.92
2019-05-28T08:03:34.627Z,993.97
2019-05-28T08:04:46.915Z,993.89
2019-05-28T08:05:34.590Z,993.89
2019-05-28T08:06:34.569Z,993.93
2019-05-28T08:07:34.555Z,993.97
2019-05-28T08:08:34.773Z,993.93
2019-05-28T08:09:34.535Z,993.94
2019-05-28T08:10:34.524Z,993.93
2019-05-28T08:11:34.508Z,993.91
2019-05-28T08:12:34.501Z,993.83
2019-05-28T08:13:40.791Z,993.92
2019-05-28T08:14:34.477Z,993.95
2019-05-28T08:15:34.464Z,994.00
2019-05-28T08:16:34.457Z,993.99
2019-05-28T08:17:34.443Z,993.98
2019-05-28T08:18:34.428Z,993.99
2019-05-28T08:19:34.418Z,993.98
2019-05-28T08:20:34.408Z,994.07
2019-05-28T08:21:34.397Z,994.03
2019-05-28T08:22:42.262Z,994.00
2019-05-28T08:23:34.372Z,993.96
2019-05-28T08:24:34.362Z,994.07
2019-05-28T08:25:46.898Z,994.03
2019-05-28T08:26:34.342Z,994.05
2019-05-28T08:27:34.324Z,994.10
2019-05-28T08:28:34.318Z,994.10
2019-05-28T08:29:34.303Z,994.00
2019-05-28T08:30:34.287Z,993.96
2019-05-28T08:31:34.274Z,994.03
2019-05-28T08:32:34.267Z,994.12
2019-05-28T08:33:34.256Z,994.14
2019-05-28T08:34:34.247Z,994.07
2019-05-28T08:35:34.232Z,994.13
2019-05-28T08:36:34.222Z,994.16
2019-05-28T08:37:34.216Z,994.15
2019-05-28T08:38:34.205Z,994.21
2019-05-28T08:39:34.188Z,994.19
2019-05-28T08:40:34.178Z,994.17
2019-05-28T08:41:34.166Z,994.17
2019-05-28T08:42:34.156Z,994.11
2019-05-28T08:43:34.144Z,994.14
2019-05-28T08:44:34.154Z,993.95
2019-05-28T08:45:34.309Z,994.11
2019-05-28T08:46:34.314Z,994.13
2019-05-28T08:47:34.300Z,994.13
2019-05-28T08:48:34.267Z,994.16
2019-05-28T08:49:34.267Z,994.12
2019-05-28T08:50:35.329Z,994.14
2019-05-28T08:51:34.078Z,994.10
2019-05-28T08:52:34.050Z,994.15
2019-05-28T08:53:34.039Z,994.15
2019-05-28T08:54:34.037Z,994.22
2019-05-28T08:55:34.015Z,994.25
2019-05-28T08:56:34.005Z,994.28
2019-05-28T08:57:34.011Z,994.21
2019-05-28T08:58:33.987Z,994.17
2019-05-28T08:59:33.977Z,994.15
2019-05-28T09:00:33.963Z,994.24
2019-05-28T09:01:33.953Z,994.26
2019-05-28T09:02:34.134Z,994.31
2019-05-28T09:03:33.931Z,994.35
2019-05-28T09:04:33.962Z,994.36
2019-05-28T09:05:33.911Z,994.34
2019-05-28T09:06:33.904Z,994.33
2019-05-28T09:07:33.908Z,994.20
2019-05-28T09:08:39.042Z,994.27
2019-05-28T09:09:33.876Z,994.26
2019-05-28T09:10:33.876Z,994.24
2019-05-28T09:11:33.854Z,994.27
2019-05-28T09:12:33.843Z,994.25
2019-05-28T09:13:33.838Z,994.31
2019-05-28T09:14:54.327Z,994.23
2019-05-28T09:15:33.817Z,994.31
2019-05-28T09:16:33.807Z,994.29
2019-05-28T09:17:33.793Z,994.31
2019-05-28T09:18:33.788Z,994.36
2019-05-28T09:19:33.782Z,994.34
2019-05-28T09:20:33.770Z,994.39
2019-05-28T09:21:33.760Z,994.34
2019-05-28T09:22:33.752Z,994.38
2019-05-28T09:23:33.741Z,994.33
2019-05-28T09:24:33.734Z,994.35
2019-05-28T09:25:33.724Z,994.41
2019-05-28T09:26:33.717Z,994.44
2019-05-28T09:27:33.707Z,994.43
2019-05-28T09:28:33.703Z,994.45
2019-05-28T09:29:33.690Z,994.48
2019-05-28T09:30:33.686Z,994.48
2019-05-28T09:31:33.669Z,994.44
2019-05-28T09:32:33.699Z,994.43
2019-05-28T09:33:33.653Z,994.44
2019-05-28T09:34:33.643Z,994.41
2019-05-28T09:35:44.024Z,994.37
2019-05-28T09:36:33.620Z,994.43
2019-05-28T09:37:33.611Z,994.52
2019-05-28T09:38:33.606Z,994.51
2019-05-28T09:39:33.596Z,994.52
2019-05-28T09:40:49.364Z,994.55
2019-05-28T09:41:33.571Z,994.56
2019-05-28T09:42:33.571Z,994.50
2019-05-28T09:43:33.552Z,994.45
2019-05-28T09:44:33.547Z,994.38
2019-05-28T09:45:33.533Z,994.49
2019-05-28T09:46:33.524Z,994.51
2019-05-28T09:47:33.515Z,994.53
2019-05-28T09:48:33.503Z,994.55
2019-05-28T09:49:33.499Z,994.57
2019-05-28T09:50:33.482Z,994.55
2019-05-28T09:51:33.474Z,994.54
2019-05-28T09:52:33.465Z,994.59
2019-05-28T09:53:35.078Z,994.58
2019-05-28T09:54:33.644Z,994.63
2019-05-28T09:55:33.634Z,994.63
2019-05-28T09:56:33.514Z,994.63
2019-05-28T09:57:46.225Z,994.67
2019-05-28T09:58:33.599Z,994.67
2019-05-28T09:59:41.571Z,994.68
2019-05-28T10:00:33.582Z,994.75
2019-05-28T10:01:36.943Z,994.72
2019-05-28T10:02:33.384Z,994.72
2019-05-28T10:03:33.384Z,994.63
2019-05-28T10:04:48.469Z,994.72
2019-05-28T10:05:33.354Z,994.61
2019-05-28T10:06:37.263Z,994.73
2019-05-28T10:07:33.337Z,994.72
2019-05-28T10:08:33.330Z,994.56
2019-05-28T10:09:33.326Z,994.71
2019-05-28T10:10:33.324Z,994.64
2019-05-28T10:11:33.311Z,994.72
2019-05-28T10:12:33.306Z,994.73
2019-05-28T10:13:39.244Z,994.76
2019-05-28T10:14:33.292Z,994.76
2019-05-28T10:15:33.346Z,994.75
2019-05-28T10:16:33.283Z,994.83
2019-05-28T10:17:33.276Z,994.78
2019-05-28T10:18:33.281Z,994.78
2019-05-28T10:19:33.263Z,994.57
2019-05-28T10:20:33.278Z,994.74
2019-05-28T10:21:33.254Z,994.79
2019-05-28T10:22:33.248Z,994.76
2019-05-28T10:23:33.241Z,994.66
2019-05-28T10:24:33.236Z,994.74
2019-05-28T10:25:33.233Z,994.74
2019-05-28T10:26:33.227Z,994.79
2019-05-28T10:27:33.218Z,994.82
2019-05-28T10:28:33.210Z,994.84
2019-05-28T10:29:33.206Z,994.90
2019-05-28T10:30:33.218Z,994.78
2019-05-28T10:31:33.194Z,994.85
2019-05-28T10:32:33.190Z,994.85
2019-05-28T10:33:33.182Z,994.81
2019-05-28T10:34:33.179Z,994.89
2019-05-28T10:35:33.172Z,994.82
2019-05-28T10:36:36.393Z,994.87
2019-05-28T10:37:33.167Z,994.87
2019-05-28T10:38:33.159Z,994.90
2019-05-28T10:39:33.152Z,994.78
2019-05-28T10:40:33.139Z,994.75
2019-05-28T10:41:33.142Z,994.84
2019-05-28T10:42:33.136Z,994.87
2019-05-28T10:43:33.129Z,994.84
2019-05-28T10:44:33.126Z,994.85
2019-05-28T10:45:33.119Z,994.85
2019-05-28T10:46:33.118Z,994.81
2019-05-28T10:47:33.108Z,994.85
2019-05-28T10:48:33.102Z,994.81
2019-05-28T10:49:33.098Z,994.78
2019-05-28T10:50:33.272Z,994.81
2019-05-28T10:51:33.288Z,994.81
2019-05-28T10:52:33.267Z,994.68
2019-05-28T10:53:33.271Z,994.70
2019-05-28T10:54:33.281Z,994.99
2019-05-28T10:55:33.065Z,994.95
2019-05-28T10:56:33.087Z,994.93
2019-05-28T10:57:33.055Z,994.81
2019-05-28T10:58:33.050Z,995.00
2019-05-28T10:59:33.044Z,994.94
2019-05-28T11:00:33.047Z,994.84
2019-05-28T11:01:33.036Z,994.79
2019-05-28T11:02:33.030Z,994.78
2019-05-28T11:03:33.026Z,994.74
2019-05-28T11:04:33.021Z,994.65
2019-05-28T11:05:33.012Z,994.68
2019-05-28T11:06:33.217Z,994.85
2019-05-28T11:07:32.999Z,995.00
2019-05-28T11:08:32.999Z,994.98
2019-05-28T11:09:32.993Z,995.00
2019-05-28T11:10:32.991Z,994.95
2019-05-28T11:11:32.983Z,994.84
2019-05-28T11:12:32.976Z,994.82
2019-05-28T11:13:32.971Z,994.81
2019-05-28T11:14:32.968Z,994.82
2019-05-28T11:15:32.964Z,994.84
2019-05-28T11:16:32.959Z,994.80
2019-05-28T11:17:32.953Z,994.89
2019-05-28T11:18:32.957Z,994.86
2019-05-28T11:19:32.950Z,994.68
2019-05-28T11:20:32.947Z,994.88
2019-05-28T11:21:32.942Z,994.96
2019-05-28T11:22:32.940Z,994.91
2019-05-28T11:23:32.935Z,994.64
2019-05-28T11:24:32.929Z,994.85
2019-05-28T11:25:32.931Z,994.84
2019-05-28T11:26:32.925Z,994.89
2019-05-28T11:27:32.922Z,994.71
2019-05-28T11:28:32.919Z,994.71
2019-05-28T11:29:32.914Z,994.66
2019-05-28T11:30:32.913Z,994.86
2019-05-28T11:31:32.911Z,994.73
2019-05-28T11:32:32.904Z,994.66
2019-05-28T11:33:32.902Z,994.66
2019-05-28T11:34:32.899Z,994.65
2019-05-28T11:35:32.898Z,994.62
2019-05-28T11:36:32.894Z,994.66
2019-05-28T11:37:32.888Z,994.63
2019-05-28T11:38:32.889Z,994.79
2019-05-28T11:39:32.882Z,994.81
2019-05-28T11:40:32.877Z,994.82
2019-05-28T11:41:42.176Z,994.85
2019-05-28T11:42:32.867Z,994.79
2019-05-28T11:43:32.863Z,994.78
2019-05-28T11:44:33.057Z,994.59
2019-05-28T11:45:33.058Z,994.72
2019-05-28T11:46:32.851Z,994.93
2019-05-28T11:47:32.845Z,994.97
2019-05-28T11:48:32.840Z,994.88
2019-05-28T11:49:32.837Z,994.97
2019-05-28T11:50:32.836Z,994.87
2019-05-28T11:51:32.836Z,994.77
2019-05-28T11:52:32.850Z,995.04
2019-05-28T11:53:36.494Z,994.89
2019-05-28T11:54:33.009Z,994.91
2019-05-28T11:55:33.021Z,994.80
2019-05-28T11:56:33.020Z,994.72
2019-05-28T11:57:33.012Z,994.86
2019-05-28T11:58:32.800Z,994.84
2019-05-28T11:59:32.975Z,994.76
2019-05-28T12:00:32.983Z,994.92
2019-05-28T12:01:35.032Z,994.86
2019-05-28T12:02:32.782Z,994.89
2019-05-28T12:03:32.793Z,994.70
2019-05-28T12:04:32.769Z,994.76
2019-05-28T12:05:32.766Z,994.74
2019-05-28T12:06:37.918Z,994.84
2019-05-28T12:07:32.756Z,994.86
2019-05-28T12:08:32.747Z,994.84
2019-05-28T12:09:32.751Z,994.81
2019-05-28T12:10:32.738Z,994.85
2019-05-28T12:11:32.736Z,994.79
2019-05-28T12:12:32.726Z,994.79
2019-05-28T12:13:32.722Z,994.80
2019-05-28T12:14:32.716Z,994.79
2019-05-28T12:15:32.709Z,994.72
2019-05-28T12:16:32.706Z,994.73
2019-05-28T12:17:42.263Z,994.57
2019-05-28T12:18:32.705Z,994.82
2019-05-28T12:19:32.695Z,994.66
2019-05-28T12:20:32.682Z,994.67
2019-05-28T12:21:32.678Z,994.61
2019-05-28T12:22:32.706Z,994.63
2019-05-28T12:23:32.669Z,994.61
2019-05-28T12:24:32.689Z,994.63
2019-05-28T12:25:32.652Z,994.60
2019-05-28T12:26:32.645Z,994.68
2019-05-28T12:27:32.640Z,994.68
2019-05-28T12:28:38.138Z,994.82